createdAt,value
2023-03-17T00:00:12.723Z,0.00
2023-03-17T00:01:12.717Z,0.00
2023-03-17T00:02:12.849Z,0.00
2023-03-17T00:03:12.696Z,0.00
2023-03-17T00:04:12.697Z,0.00
2023-03-17T00:05:12.670Z,0.00
2023-03-17T00:06:12.650Z,0.00
2023-03-17T00:07:12.646Z,0.00
2023-03-17T00:08:12.657Z,0.00
2023-03-17T00:09:12.615Z,0.00
2023-03-17T00:10:12.635Z,0.00
2023-03-17T00:11:12.617Z,0.00
2023-03-17T00:12:12.576Z,0.00
2023-03-17T00:13:12.599Z,0.00
2023-03-17T00:14:12.571Z,0.00
2023-03-17T00:15:12.570Z,0.00
2023-03-17T00:16:12.603Z,0.00
2023-03-17T00:17:12.546Z,0.00
2023-03-17T00:18:12.553Z,0.00
2023-03-17T00:19:12.517Z,0.00
2023-03-17T00:20:12.495Z,0.00
2023-03-17T00:21:12.505Z,0.00
2023-03-17T00:22:12.503Z,0.00
2023-03-17T00:23:12.498Z,0.00
2023-03-17T00:24:14.719Z,0.00
2023-03-17T00:25:12.446Z,0.00
2023-03-17T00:26:12.462Z,0.00
2023-03-17T00:27:12.439Z,0.00
2023-03-17T00:28:12.441Z,0.00
2023-03-17T00:29:12.411Z,0.00
2023-03-17T00:30:12.429Z,0.00
2023-03-17T00:31:12.451Z,0.00
2023-03-17T00:32:12.384Z,0.00
2023-03-17T00:33:12.372Z,0.00
2023-03-17T00:34:12.392Z,0.00
2023-03-17T00:35:12.343Z,0.00
2023-03-17T00:36:12.354Z,0.00
2023-03-17T00:37:12.314Z,0.00
2023-03-17T00:38:12.375Z,0.00
2023-03-17T00:40:11.415Z,0.00
2023-03-17T00:41:12.286Z,0.00
2023-03-17T00:42:12.263Z,0.00
2023-03-17T00:43:12.304Z,0.00
2023-03-17T00:44:12.249Z,0.00
2023-03-17T00:45:12.222Z,0.00
2023-03-17T00:46:12.423Z,0.00
2023-03-17T00:47:12.239Z,0.00
2023-03-17T00:48:13.273Z,0.00
2023-03-17T00:49:12.230Z,0.00
2023-03-17T00:50:12.588Z,0.00
2023-03-17T00:51:12.174Z,0.00
2023-03-17T00:52:12.367Z,0.00
2023-03-17T00:53:12.243Z,0.00
2023-03-17T00:54:12.138Z,0.00
2023-03-17T00:55:12.137Z,0.00
2023-03-17T00:56:12.128Z,0.00
2023-03-17T00:57:12.132Z,0.00
2023-03-17T00:58:12.100Z,0.00
2023-03-17T00:59:12.105Z,0.00
2023-03-17T01:00:12.081Z,0.00
2023-03-17T01:01:12.186Z,0.00
2023-03-17T01:02:12.128Z,0.00
2023-03-17T01:03:12.083Z,0.00
2023-03-17T01:04:12.043Z,0.00
2023-03-17T01:05:12.028Z,0.00
2023-03-17T01:06:12.014Z,0.00
2023-03-17T01:07:12.004Z,0.00
2023-03-17T01:08:12.008Z,0.00
2023-03-17T01:09:11.973Z,0.00
2023-03-17T01:10:11.974Z,0.00
2023-03-17T01:11:11.955Z,0.00
2023-03-17T01:12:11.947Z,0.00
2023-03-17T01:13:11.954Z,0.00
2023-03-17T01:14:11.957Z,0.00
2023-03-17T01:15:11.924Z,0.00
2023-03-17T01:16:11.967Z,0.00
2023-03-17T01:17:11.931Z,0.00
2023-03-17T01:18:11.915Z,0.00
2023-03-17T01:19:11.966Z,0.00
2023-03-17T01:20:11.893Z,0.00
2023-03-17T01:21:11.856Z,0.00
2023-03-17T01:22:11.844Z,0.00
2023-03-17T01:23:11.851Z,0.00
2023-03-17T01:24:11.849Z,0.00
2023-03-17T01:25:11.820Z,0.00
2023-03-17T01:26:11.857Z,0.00
2023-03-17T01:27:11.806Z,0.00
2023-03-17T01:28:11.823Z,0.00
2023-03-17T01:29:11.762Z,0.00
2023-03-17T01:30:11.773Z,0.00
2023-03-17T01:31:11.778Z,0.00
2023-03-17T01:32:11.838Z,0.00
2023-03-17T01:33:11.738Z,0.00
2023-03-17T01:34:11.733Z,0.00
2023-03-17T01:35:11.727Z,0.00
2023-03-17T01:36:11.807Z,0.00
2023-03-17T01:37:11.685Z,0.00
2023-03-17T01:38:11.727Z,0.00
2023-03-17T01:39:11.688Z,0.00
2023-03-17T01:40:11.680Z,0.00
2023-03-17T01:41:11.675Z,0.00
2023-03-17T01:42:11.655Z,0.00
2023-03-17T01:43:11.773Z,0.00
2023-03-17T01:44:11.628Z,0.00
2023-03-17T01:45:11.614Z,0.00
2023-03-17T01:46:11.686Z,0.00
2023-03-17T01:47:11.582Z,0.00
2023-03-17T01:48:11.602Z,0.00
2023-03-17T01:49:11.584Z,0.00
2023-03-17T01:50:11.556Z,0.00
2023-03-17T01:51:11.542Z,0.00
2023-03-17T01:52:11.558Z,0.00
2023-03-17T01:53:11.544Z,0.00
2023-03-17T01:54:11.530Z,0.00
2023-03-17T01:55:11.512Z,0.00
2023-03-17T01:56:11.504Z,0.00
2023-03-17T01:57:11.538Z,0.00
2023-03-17T01:58:11.479Z,0.00
2023-03-17T01:59:11.474Z,0.00
2023-03-17T02:00:11.487Z,0.00
2023-03-17T02:01:11.471Z,0.00
2023-03-17T02:02:11.429Z,0.00
2023-03-17T02:03:11.427Z,0.00
2023-03-17T02:04:11.548Z,0.00
2023-03-17T02:05:17.407Z,0.00
2023-03-17T02:06:11.398Z,0.00
2023-03-17T02:07:11.383Z,0.00
2023-03-17T02:08:11.389Z,0.00
2023-03-17T02:09:11.357Z,0.00
2023-03-17T02:10:11.351Z,0.00
2023-03-17T02:11:11.361Z,0.00
2023-03-17T02:12:11.337Z,0.00
2023-03-17T02:13:11.332Z,0.00
2023-03-17T02:14:11.307Z,0.00
2023-03-17T02:15:11.321Z,0.00
2023-03-17T02:16:11.417Z,0.00
2023-03-17T02:17:11.313Z,0.00
2023-03-17T02:18:11.304Z,0.00
2023-03-17T02:19:11.262Z,0.00
2023-03-17T02:20:11.253Z,0.00
2023-03-17T02:21:11.239Z,0.00
2023-03-17T02:22:11.234Z,0.00
2023-03-17T02:23:11.214Z,0.00
2023-03-17T02:24:11.218Z,0.00
2023-03-17T02:25:11.223Z,0.00
2023-03-17T02:26:11.192Z,0.00
2023-03-17T02:27:11.166Z,0.00
2023-03-17T02:28:11.197Z,0.00
2023-03-17T02:29:11.151Z,0.00
2023-03-17T02:30:11.216Z,0.00
2023-03-17T02:31:11.215Z,0.00
2023-03-17T02:32:11.124Z,0.00
2023-03-17T02:33:11.152Z,0.00
2023-03-17T02:34:11.121Z,0.00
2023-03-17T02:35:11.119Z,0.00
2023-03-17T02:36:11.109Z,0.00
2023-03-17T02:37:11.090Z,0.00
2023-03-17T02:38:11.103Z,0.00
2023-03-17T02:39:11.117Z,0.00
2023-03-17T02:40:11.037Z,0.00
2023-03-17T02:41:11.028Z,0.00
2023-03-17T02:42:11.037Z,0.00
2023-03-17T02:43:11.044Z,0.00
2023-03-17T02:44:11.017Z,0.00
2023-03-17T02:45:10.980Z,0.00
2023-03-17T02:46:11.090Z,0.00
2023-03-17T02:47:10.998Z,0.00
2023-03-17T02:48:10.978Z,0.00
2023-03-17T02:49:10.961Z,0.00
2023-03-17T02:50:10.959Z,0.00
2023-03-17T02:51:10.933Z,0.00
2023-03-17T02:52:10.939Z,0.00
2023-03-17T02:53:10.972Z,0.00
2023-03-17T02:54:10.926Z,0.00
2023-03-17T02:55:10.901Z,0.00
2023-03-17T02:56:10.916Z,0.00
2023-03-17T02:57:10.874Z,0.00
2023-03-17T02:58:10.868Z,0.00
2023-03-17T02:59:10.841Z,0.00
2023-03-17T03:00:10.870Z,0.00
2023-03-17T03:01:10.844Z,0.00
2023-03-17T03:02:10.871Z,0.00
2023-03-17T03:03:10.806Z,0.00
2023-03-17T03:04:10.791Z,0.00
2023-03-17T03:05:10.877Z,0.00
2023-03-17T03:06:10.811Z,0.00
2023-03-17T03:07:10.753Z,0.00
2023-03-17T03:08:10.786Z,0.00
2023-03-17T03:09:10.755Z,0.00
2023-03-17T03:10:10.736Z,0.00
2023-03-17T03:11:10.717Z,0.00
2023-03-17T03:12:10.720Z,0.00
2023-03-17T03:13:10.718Z,0.00
2023-03-17T03:14:10.715Z,0.00
2023-03-17T03:15:10.704Z,0.00
2023-03-17T03:16:10.734Z,0.00
2023-03-17T03:17:10.672Z,0.00
2023-03-17T03:18:10.665Z,0.00
2023-03-17T03:19:10.648Z,0.00
2023-03-17T03:20:10.627Z,0.00
2023-03-17T03:21:10.633Z,0.00
2023-03-17T03:22:10.610Z,0.00
2023-03-17T03:23:11.110Z,0.00
2023-03-17T03:24:10.606Z,0.00
2023-03-17T03:25:10.584Z,0.00
2023-03-17T03:26:10.587Z,0.00
2023-03-17T03:27:10.569Z,0.00
2023-03-17T03:28:10.584Z,0.00
2023-03-17T03:29:10.568Z,0.00
2023-03-17T03:30:10.553Z,0.00
2023-03-17T03:31:10.574Z,0.00
2023-03-17T03:32:10.519Z,0.00
2023-03-17T03:33:10.506Z,0.00
2023-03-17T03:34:10.524Z,0.00
2023-03-17T03:35:10.506Z,0.00
2023-03-17T03:36:10.557Z,0.00
2023-03-17T03:37:10.472Z,0.00
2023-03-17T03:38:10.466Z,0.00
2023-03-17T03:39:12.454Z,0.00
2023-03-17T03:40:10.477Z,0.00
2023-03-17T03:41:10.445Z,0.00
2023-03-17T03:42:10.407Z,0.00
2023-03-17T03:43:22.460Z,0.00
2023-03-17T03:44:10.406Z,0.00
2023-03-17T03:45:10.397Z,0.00
2023-03-17T03:46:10.421Z,0.00
2023-03-17T03:47:10.349Z,0.00
2023-03-17T03:48:10.418Z,0.00
2023-03-17T03:49:10.349Z,0.00
2023-03-17T03:50:10.351Z,0.00
2023-03-17T03:51:10.316Z,0.00
2023-03-17T03:52:10.297Z,0.00
2023-03-17T03:53:10.310Z,0.00
2023-03-17T03:54:10.286Z,0.00
2023-03-17T03:55:10.300Z,0.00
2023-03-17T03:56:10.252Z,0.00
2023-03-17T03:57:10.253Z,0.00
2023-03-17T03:58:10.247Z,0.00
2023-03-17T03:59:10.254Z,0.00
2023-03-17T04:00:10.213Z,0.00
2023-03-17T04:01:10.199Z,0.00
2023-03-17T04:02:10.197Z,0.00
2023-03-17T04:03:10.293Z,0.00
2023-03-17T04:04:10.202Z,0.00
2023-03-17T04:05:10.160Z,0.00
2023-03-17T04:06:10.144Z,0.00
2023-03-17T04:07:10.134Z,0.00
2023-03-17T04:08:10.135Z,0.00
2023-03-17T04:09:10.224Z,0.00
2023-03-17T04:10:10.124Z,0.00
2023-03-17T04:11:10.110Z,0.00
2023-03-17T04:12:10.142Z,0.00
2023-03-17T04:13:10.126Z,0.00
2023-03-17T04:14:10.115Z,0.00
2023-03-17T04:15:10.111Z,0.00
2023-03-17T04:16:10.072Z,0.00
2023-03-17T04:17:10.052Z,0.00
2023-03-17T04:18:10.049Z,0.00
2023-03-17T04:19:10.115Z,0.00
2023-03-17T04:20:10.051Z,0.00
2023-03-17T04:21:10.011Z,0.00
2023-03-17T04:22:09.998Z,0.00
2023-03-17T04:23:09.976Z,0.00
2023-03-17T04:24:09.966Z,0.00
2023-03-17T04:25:09.941Z,0.00
2023-03-17T04:26:10.002Z,0.00
2023-03-17T04:27:09.956Z,0.00
2023-03-17T04:28:09.931Z,0.00
2023-03-17T04:29:09.937Z,0.00
2023-03-17T04:30:09.892Z,0.00
2023-03-17T04:31:09.953Z,0.00
2023-03-17T04:32:09.905Z,0.00
2023-03-17T04:33:09.911Z,0.00
2023-03-17T04:34:09.884Z,0.00
2023-03-17T04:35:09.836Z,0.00
2023-03-17T04:36:09.905Z,0.00
2023-03-17T04:37:09.834Z,0.00
2023-03-17T04:38:09.810Z,0.00
2023-03-17T04:39:09.864Z,0.00
2023-03-17T04:40:09.829Z,0.00
2023-03-17T04:41:09.776Z,0.00
2023-03-17T04:42:09.784Z,0.00
2023-03-17T04:43:09.768Z,0.00
2023-03-17T04:44:09.806Z,0.00
2023-03-17T04:45:09.763Z,0.00
2023-03-17T04:46:09.797Z,0.00
2023-03-17T04:47:09.723Z,0.00
2023-03-17T04:48:09.710Z,0.00
2023-03-17T04:49:09.750Z,0.00
2023-03-17T04:50:09.699Z,0.00
2023-03-17T04:51:11.660Z,0.00
2023-03-17T04:52:09.664Z,0.00
2023-03-17T04:53:09.667Z,0.00
2023-03-17T04:54:09.698Z,0.00
2023-03-17T04:55:09.636Z,0.00
2023-03-17T04:56:09.689Z,0.00
2023-03-17T04:57:09.644Z,0.00
2023-03-17T04:58:11.786Z,0.00
2023-03-17T04:59:10.110Z,0.00
2023-03-17T05:00:09.616Z,0.00
2023-03-17T05:01:09.644Z,0.00
2023-03-17T05:02:09.641Z,0.00
2023-03-17T05:03:24.088Z,1.00
2023-03-17T05:04:11.137Z,1.00
2023-03-17T05:05:09.500Z,1.00
2023-03-17T05:06:09.473Z,1.00
2023-03-17T05:07:09.496Z,2.00
2023-03-17T05:08:09.448Z,2.00
2023-03-17T05:09:09.469Z,2.00
2023-03-17T05:10:09.432Z,2.00
2023-03-17T05:11:09.492Z,3.00
2023-03-17T05:12:09.409Z,2.00
2023-03-17T05:13:09.420Z,3.00
2023-03-17T05:14:09.436Z,6.00
2023-03-17T05:15:09.393Z,5.00
2023-03-17T05:16:09.484Z,8.00
2023-03-17T05:17:09.348Z,9.00
2023-03-17T05:18:09.362Z,7.00
2023-03-17T05:19:09.360Z,11.00
2023-03-17T05:20:09.340Z,13.00
2023-03-17T05:21:09.344Z,21.00
2023-03-17T05:22:09.297Z,20.00
2023-03-17T05:23:09.299Z,27.00
2023-03-17T05:24:09.297Z,32.00
2023-03-17T05:25:09.293Z,39.00
2023-03-17T05:26:09.263Z,46.00
2023-03-17T05:27:09.273Z,51.00
2023-03-17T05:28:09.278Z,58.00
2023-03-17T05:29:09.252Z,68.00
2023-03-17T05:30:09.226Z,77.00
2023-03-17T05:31:10.913Z,88.00
2023-03-17T05:32:09.229Z,95.00
2023-03-17T05:33:09.187Z,103.00
2023-03-17T05:34:09.223Z,111.00
2023-03-17T05:35:09.189Z,119.00
2023-03-17T05:36:09.195Z,130.00
2023-03-17T05:37:09.175Z,140.00
2023-03-17T05:38:09.148Z,157.00
2023-03-17T05:39:09.158Z,167.00
2023-03-17T05:40:09.136Z,179.00
2023-03-17T05:41:09.114Z,197.00
2023-03-17T05:42:09.122Z,212.00
2023-03-17T05:43:09.089Z,226.00
2023-03-17T05:44:09.093Z,241.00
2023-03-17T05:45:09.072Z,254.00
2023-03-17T05:46:09.122Z,273.00
2023-03-17T05:47:09.044Z,296.00
2023-03-17T05:48:09.033Z,323.00
2023-03-17T05:49:09.055Z,356.00
2023-03-17T05:50:09.025Z,394.00
2023-03-17T05:51:09.038Z,432.00
2023-03-17T05:52:09.006Z,473.00
2023-03-17T05:53:08.996Z,512.00
2023-03-17T05:54:08.987Z,544.00
2023-03-17T05:55:08.987Z,579.00
2023-03-17T05:56:08.968Z,610.00
2023-03-17T05:57:08.949Z,642.00
2023-03-17T05:58:08.945Z,681.00
2023-03-17T05:59:08.960Z,720.00
2023-03-17T06:00:09.472Z,756.00
2023-03-17T06:01:08.935Z,788.00
2023-03-17T06:02:08.981Z,820.00
2023-03-17T06:03:08.956Z,868.00
2023-03-17T06:04:08.939Z,913.00
2023-03-17T06:05:08.908Z,956.00
2023-03-17T06:06:08.875Z,989.00
2023-03-17T06:07:08.871Z,1037.00
2023-03-17T06:08:08.837Z,1082.00
2023-03-17T06:09:08.885Z,1131.00
2023-03-17T06:10:08.836Z,1162.00
2023-03-17T06:11:08.828Z,1193.00
2023-03-17T06:12:08.832Z,1222.00
2023-03-17T06:13:08.805Z,1237.00
2023-03-17T06:14:08.817Z,1262.00
2023-03-17T06:15:08.772Z,1293.00
2023-03-17T06:16:08.922Z,1268.00
2023-03-17T06:17:08.770Z,1323.00
2023-03-17T06:18:08.741Z,1307.00
2023-03-17T06:19:08.749Z,1270.00
2023-03-17T06:20:08.736Z,1273.00
2023-03-17T06:21:08.756Z,1327.00
2023-03-17T06:22:08.817Z,1374.00
2023-03-17T06:23:08.718Z,1401.00
2023-03-17T06:24:08.704Z,1409.00
2023-03-17T06:25:08.677Z,1415.00
2023-03-17T06:26:08.674Z,1429.00
2023-03-17T06:27:08.662Z,1427.00
2023-03-17T06:28:08.645Z,1452.00
2023-03-17T06:29:08.650Z,1479.00
2023-03-17T06:30:08.666Z,1520.00
2023-03-17T06:31:08.661Z,1568.00
2023-03-17T06:32:19.878Z,1663.00
2023-03-17T06:33:08.874Z,1671.00
2023-03-17T06:34:08.611Z,1766.00
2023-03-17T06:35:08.620Z,1910.00
2023-03-17T06:36:08.797Z,1948.00
2023-03-17T06:37:08.574Z,1899.00
2023-03-17T06:38:08.554Z,2021.00
2023-03-17T06:39:08.584Z,2105.00
2023-03-17T06:40:08.529Z,2216.00
2023-03-17T06:41:08.521Z,2244.00
2023-03-17T06:42:08.532Z,2372.00
2023-03-17T06:43:08.507Z,2328.00
2023-03-17T06:44:08.525Z,2372.00
2023-03-17T06:45:08.491Z,2545.00
2023-03-17T06:46:08.609Z,2524.00
2023-03-17T06:47:08.466Z,2581.00
2023-03-17T06:48:08.494Z,2506.00
2023-03-17T06:49:08.652Z,2616.00
2023-03-17T06:50:08.451Z,2673.00
2023-03-17T06:51:08.410Z,2760.00
2023-03-17T06:52:08.391Z,2720.00
2023-03-17T06:53:08.385Z,2777.00
2023-03-17T06:54:08.408Z,2797.00
2023-03-17T06:55:08.382Z,2863.00
2023-03-17T06:56:20.005Z,2868.00
2023-03-17T06:57:08.366Z,2891.00
2023-03-17T06:58:08.334Z,2867.00
2023-03-17T06:59:08.335Z,2995.00
2023-03-17T07:00:08.343Z,3087.00
2023-03-17T07:01:08.313Z,2919.00
2023-03-17T07:02:08.369Z,3281.00
2023-03-17T07:03:08.289Z,2876.00
2023-03-17T07:04:08.313Z,3112.00
2023-03-17T07:05:08.294Z,3165.00
2023-03-17T07:06:08.265Z,3230.00
2023-03-17T07:07:08.255Z,3230.00
2023-03-17T07:08:08.262Z,3247.00
2023-03-17T07:09:08.245Z,3297.00
2023-03-17T07:10:08.202Z,3314.00
2023-03-17T07:11:08.215Z,3295.00
2023-03-17T07:12:08.198Z,3377.00
2023-03-17T07:13:08.196Z,3221.00
2023-03-17T07:14:08.177Z,3335.00
2023-03-17T07:15:08.154Z,3269.00
2023-03-17T07:16:08.206Z,3265.00
2023-03-17T07:17:08.150Z,3332.00
2023-03-17T07:18:08.131Z,3193.00
2023-03-17T07:19:08.134Z,3172.00
2023-03-17T07:20:08.094Z,3321.00
2023-03-17T07:21:08.093Z,3354.00
2023-03-17T07:22:08.082Z,3365.00
2023-03-17T07:23:08.092Z,3458.00
2023-03-17T07:24:08.057Z,3402.00
2023-03-17T07:25:08.059Z,3528.00
2023-03-17T07:26:08.103Z,3575.00
2023-03-17T07:27:08.030Z,3616.00
2023-03-17T07:28:08.036Z,3626.00
2023-03-17T07:29:08.032Z,3616.00
2023-03-17T07:30:08.004Z,3763.00
2023-03-17T07:31:08.108Z,3649.00
2023-03-17T07:32:07.999Z,3540.00
2023-03-17T07:33:08.090Z,3525.00
2023-03-17T07:34:07.990Z,3529.00
2023-03-17T07:35:08.003Z,3469.00
2023-03-17T07:36:08.074Z,3593.00
2023-03-17T07:37:07.970Z,3594.00
2023-03-17T07:38:07.944Z,3647.00
2023-03-17T07:39:10.157Z,3543.00
2023-03-17T07:40:07.899Z,3650.00
2023-03-17T07:41:07.891Z,3495.00
2023-03-17T07:42:07.880Z,3561.00
2023-03-17T07:43:07.916Z,3616.00
2023-03-17T07:44:07.879Z,3638.00
2023-03-17T07:45:07.865Z,3569.00
2023-03-17T07:46:07.873Z,3580.00
2023-03-17T07:47:07.858Z,3476.00
2023-03-17T07:48:07.830Z,3560.00
2023-03-17T07:49:07.800Z,3538.00
2023-03-17T07:50:07.798Z,3652.00
2023-03-17T07:51:07.812Z,3527.00
2023-03-17T07:52:07.918Z,3784.00
2023-03-17T07:53:07.808Z,3728.00
2023-03-17T07:54:07.763Z,3890.00
2023-03-17T07:55:07.748Z,3462.00
2023-03-17T07:56:07.743Z,3799.00
2023-03-17T07:57:07.730Z,3337.00
2023-03-17T07:58:07.818Z,3559.00
2023-03-17T07:59:07.770Z,3159.00
2023-03-17T08:00:07.699Z,3214.00
2023-03-17T08:01:07.691Z,3440.00
2023-03-17T08:02:07.737Z,3408.00
2023-03-17T08:03:10.553Z,2967.00
2023-03-17T08:04:07.756Z,3529.00
2023-03-17T08:05:07.717Z,3188.00
2023-03-17T08:06:07.668Z,3368.00
2023-03-17T08:07:07.648Z,3424.00
2023-03-17T08:08:07.618Z,3386.00
2023-03-17T08:09:07.623Z,3482.00
2023-03-17T08:10:07.623Z,3159.00
2023-03-17T08:11:07.606Z,3285.00
2023-03-17T08:12:07.566Z,3506.00
2023-03-17T08:13:07.614Z,3617.00
2023-03-17T08:14:07.548Z,3680.00
2023-03-17T08:15:07.574Z,4240.00
2023-03-17T08:16:07.631Z,4094.00
2023-03-17T08:17:07.563Z,3986.00
2023-03-17T08:18:07.552Z,3761.00
2023-03-17T08:19:07.532Z,4465.00
2023-03-17T08:20:07.511Z,3759.00
2023-03-17T08:21:07.477Z,4023.00
2023-03-17T08:22:07.506Z,3785.00
2023-03-17T08:23:07.479Z,4227.00
2023-03-17T08:24:07.466Z,4174.00
2023-03-17T08:25:07.451Z,4060.00
2023-03-17T08:26:08.113Z,3885.00
2023-03-17T08:27:07.411Z,3774.00
2023-03-17T08:28:07.411Z,3381.00
2023-03-17T08:29:07.451Z,4108.00
2023-03-17T08:30:07.370Z,3467.00
2023-03-17T08:31:08.760Z,4524.00
2023-03-17T08:32:07.374Z,4248.00
2023-03-17T08:33:07.434Z,4112.00
2023-03-17T08:34:07.365Z,4423.00
2023-03-17T08:35:07.340Z,3900.00
2023-03-17T08:36:07.324Z,3656.00
2023-03-17T08:37:10.058Z,3845.00
2023-03-17T08:38:07.302Z,4303.00
2023-03-17T08:39:07.309Z,3733.00
2023-03-17T08:40:07.296Z,3442.00
2023-03-17T08:41:07.294Z,3459.00
2023-03-17T08:42:07.272Z,3582.00
2023-03-17T08:43:07.249Z,3531.00
2023-03-17T08:44:07.264Z,3551.00
2023-03-17T08:45:07.241Z,3348.00
2023-03-17T08:46:07.283Z,3547.00
2023-03-17T08:47:07.228Z,3268.00
2023-03-17T08:48:07.204Z,3759.00
2023-03-17T08:49:07.198Z,4317.00
2023-03-17T08:50:07.178Z,4585.00
2023-03-17T08:51:07.165Z,4898.00
2023-03-17T08:52:07.188Z,4522.00
2023-03-17T08:53:07.153Z,4421.00
2023-03-17T08:54:07.150Z,3660.00
2023-03-17T08:55:07.135Z,3290.00
2023-03-17T08:56:07.143Z,3563.00
2023-03-17T08:57:07.118Z,3969.00
2023-03-17T08:58:07.115Z,3594.00
2023-03-17T08:59:07.107Z,4181.00
2023-03-17T09:00:07.071Z,3955.00
2023-03-17T09:01:07.252Z,3836.00
2023-03-17T09:02:07.112Z,3600.00
2023-03-17T09:03:07.056Z,4072.00
2023-03-17T09:04:07.060Z,3605.00
2023-03-17T09:05:07.044Z,4003.00
2023-03-17T09:06:07.030Z,4021.00
2023-03-17T09:07:09.612Z,4591.00
2023-03-17T09:08:07.065Z,4599.00
2023-03-17T09:09:07.016Z,4385.00
2023-03-17T09:10:06.998Z,4248.00
2023-03-17T09:11:06.965Z,3968.00
2023-03-17T09:12:06.954Z,4667.00
2023-03-17T09:13:07.019Z,4736.00
2023-03-17T09:14:06.929Z,4503.00
2023-03-17T09:15:06.936Z,4738.00
2023-03-17T09:16:06.963Z,4334.00
2023-03-17T09:17:06.903Z,4986.00
2023-03-17T09:18:06.930Z,4588.00
2023-03-17T09:19:06.889Z,5678.00
2023-03-17T09:20:06.888Z,5103.00
2023-03-17T09:21:06.883Z,4310.00
2023-03-17T09:22:06.856Z,4118.00
2023-03-17T09:23:06.861Z,4355.00
2023-03-17T09:24:06.841Z,4377.00
2023-03-17T09:25:06.837Z,4201.00
2023-03-17T09:26:06.813Z,4121.00
2023-03-17T09:27:06.820Z,4056.00
2023-03-17T09:28:06.936Z,4138.00
2023-03-17T09:29:06.775Z,3931.00
2023-03-17T09:30:06.779Z,4301.00
2023-03-17T09:31:06.807Z,4506.00
2023-03-17T09:32:06.749Z,4043.00
2023-03-17T09:33:06.825Z,4865.00
2023-03-17T09:34:06.733Z,4494.00
2023-03-17T09:35:06.712Z,5198.00
2023-03-17T09:36:06.744Z,4953.00
2023-03-17T09:37:06.708Z,5256.00
2023-03-17T09:38:06.700Z,5256.00
2023-03-17T09:39:06.679Z,5350.00
2023-03-17T09:40:06.676Z,5178.00
2023-03-17T09:41:06.655Z,5625.00
2023-03-17T09:42:06.665Z,4393.00
2023-03-17T09:43:06.669Z,4692.00
2023-03-17T09:44:06.680Z,4869.00
2023-03-17T09:45:06.625Z,5476.00
2023-03-17T09:46:06.613Z,4943.00
2023-03-17T09:47:06.604Z,5551.00
2023-03-17T09:48:06.599Z,4292.00
2023-03-17T09:49:06.588Z,5176.00
2023-03-17T09:50:06.572Z,4107.00
2023-03-17T09:51:06.569Z,5794.00
2023-03-17T09:52:06.561Z,4262.00
2023-03-17T09:53:06.533Z,4119.00
2023-03-17T09:54:06.531Z,5002.00
2023-03-17T09:55:06.521Z,4916.00
2023-03-17T09:56:06.500Z,4989.00
2023-03-17T09:57:06.488Z,4923.00
2023-03-17T09:58:06.499Z,4931.00
2023-03-17T09:59:06.469Z,4866.00
2023-03-17T10:00:06.518Z,4914.00
2023-03-17T10:01:06.468Z,5101.00
2023-03-17T10:02:06.535Z,5042.00
2023-03-17T10:03:06.450Z,4543.00
2023-03-17T10:04:06.443Z,4668.00
2023-03-17T10:05:06.455Z,5087.00
2023-03-17T10:06:06.405Z,5259.00
2023-03-17T10:07:06.378Z,5002.00
2023-03-17T10:08:15.644Z,5186.00
2023-03-17T10:09:06.392Z,5411.00
2023-03-17T10:10:06.364Z,5860.00
2023-03-17T10:11:06.366Z,5395.00
2023-03-17T10:12:06.358Z,3924.00
2023-03-17T10:13:06.347Z,4883.00
2023-03-17T10:14:06.367Z,4721.00
2023-03-17T10:15:06.346Z,5096.00
2023-03-17T10:16:06.325Z,4836.00
2023-03-17T10:17:06.384Z,4925.00
2023-03-17T10:18:06.355Z,4632.00
2023-03-17T10:19:06.356Z,5845.00
2023-03-17T10:20:06.274Z,4753.00
2023-03-17T10:21:06.343Z,4855.00
2023-03-17T10:22:06.244Z,6270.00
2023-03-17T10:23:06.237Z,5394.00
2023-03-17T10:24:06.228Z,5771.00
2023-03-17T10:25:06.191Z,5607.00
2023-03-17T10:26:06.203Z,5338.00
2023-03-17T10:27:06.182Z,5215.00
2023-03-17T10:28:08.867Z,5202.00
2023-03-17T10:29:06.181Z,4857.00
2023-03-17T10:30:06.191Z,5336.00
2023-03-17T10:31:06.183Z,5722.00
2023-03-17T10:32:06.142Z,6173.00
2023-03-17T10:33:06.338Z,6472.00
2023-03-17T10:34:06.104Z,6321.00
2023-03-17T10:35:06.093Z,6458.00
2023-03-17T10:36:06.127Z,6196.00
2023-03-17T10:37:06.066Z,6180.00
2023-03-17T10:38:14.447Z,5949.00
2023-03-17T10:39:06.065Z,6074.00
2023-03-17T10:40:06.050Z,6143.00
2023-03-17T10:41:06.032Z,5871.00
2023-03-17T10:42:06.034Z,5853.00
2023-03-17T10:43:06.026Z,5586.00
2023-03-17T10:44:06.000Z,6203.00
2023-03-17T10:45:06.017Z,5953.00
2023-03-17T10:46:06.013Z,6178.00
2023-03-17T10:47:06.028Z,5780.00
2023-03-17T10:48:05.983Z,5806.00
2023-03-17T10:49:05.982Z,6096.00
2023-03-17T10:50:05.950Z,5443.00
2023-03-17T10:51:05.956Z,5148.00
2023-03-17T10:52:05.935Z,5105.00
2023-03-17T10:53:05.950Z,5366.00
2023-03-17T10:54:05.916Z,4969.00
2023-03-17T10:55:05.922Z,4852.00
2023-03-17T10:56:05.886Z,5010.00
2023-03-17T10:57:05.891Z,4497.00
2023-03-17T10:58:05.900Z,4670.00
2023-03-17T10:59:05.845Z,4590.00
2023-03-17T11:00:05.877Z,4971.00
2023-03-17T11:01:06.014Z,5067.00
2023-03-17T11:02:05.818Z,5034.00
2023-03-17T11:03:05.824Z,4726.00
2023-03-17T11:04:05.861Z,4760.00
2023-03-17T11:05:05.793Z,4860.00
2023-03-17T11:06:05.803Z,4946.00
2023-03-17T11:07:05.783Z,5155.00
2023-03-17T11:08:05.824Z,5059.00
2023-03-17T11:09:05.759Z,5585.00
2023-03-17T11:10:05.752Z,5769.00
2023-03-17T11:11:05.740Z,5767.00
2023-03-17T11:12:05.736Z,5813.00
2023-03-17T11:13:05.731Z,5751.00
2023-03-17T11:14:05.718Z,6085.00
2023-03-17T11:15:05.697Z,5609.00
2023-03-17T11:16:05.712Z,6016.00
2023-03-17T11:17:05.678Z,5811.00
2023-03-17T11:18:05.681Z,5825.00
2023-03-17T11:19:05.639Z,5616.00
2023-03-17T11:20:05.662Z,5658.00
2023-03-17T11:21:05.637Z,5533.00
2023-03-17T11:22:05.657Z,5390.00
2023-03-17T11:23:05.609Z,5515.00
2023-03-17T11:24:05.625Z,5629.00
2023-03-17T11:25:05.586Z,5461.00
2023-03-17T11:26:05.589Z,5695.00
2023-03-17T11:27:05.580Z,5631.00
2023-03-17T11:28:05.586Z,5540.00
2023-03-17T11:29:05.549Z,6040.00
2023-03-17T11:30:05.570Z,6084.00
2023-03-17T11:31:05.518Z,5791.00
2023-03-17T11:32:05.749Z,6169.00
2023-03-17T11:33:05.589Z,6368.00
2023-03-17T11:34:05.510Z,6265.00
2023-03-17T11:35:05.487Z,6530.00
2023-03-17T11:36:05.512Z,6192.00
2023-03-17T11:37:05.456Z,5907.00
2023-03-17T11:38:05.467Z,5734.00
2023-03-17T11:39:05.462Z,7201.00
2023-03-17T11:40:05.427Z,7233.00
2023-03-17T11:41:05.409Z,6406.00
2023-03-17T11:42:05.411Z,6259.00
2023-03-17T11:43:05.463Z,6503.00
2023-03-17T11:44:05.395Z,6363.00
2023-03-17T11:45:05.391Z,6552.00
2023-03-17T11:46:05.451Z,6120.00
2023-03-17T11:47:05.381Z,6497.00
2023-03-17T11:48:05.371Z,5818.00
2023-03-17T11:49:05.372Z,5875.00
2023-03-17T11:50:05.353Z,5222.00
2023-03-17T11:51:05.321Z,5718.00
2023-03-17T11:52:05.302Z,5754.00
2023-03-17T11:53:05.319Z,5656.00
2023-03-17T11:54:05.286Z,5522.00
2023-03-17T11:55:05.297Z,5592.00
2023-03-17T11:56:05.285Z,5216.00
2023-03-17T11:57:05.301Z,5386.00
2023-03-17T11:58:05.266Z,5448.00
2023-03-17T11:59:05.279Z,5130.00
2023-03-17T12:00:05.224Z,5127.00
2023-03-17T12:01:05.206Z,4841.00
2023-03-17T12:02:05.228Z,4842.00
2023-03-17T12:03:05.256Z,4951.00
2023-03-17T12:04:05.299Z,4969.00
2023-03-17T12:05:05.198Z,4976.00
2023-03-17T12:06:05.178Z,5078.00
2023-03-17T12:07:05.138Z,5085.00
2023-03-17T12:08:05.154Z,5253.00
2023-03-17T12:09:05.126Z,5312.00
2023-03-17T12:10:05.177Z,5421.00
2023-03-17T12:11:05.099Z,5501.00
2023-03-17T12:12:05.100Z,5334.00
2023-03-17T12:13:05.147Z,5295.00
2023-03-17T12:14:05.080Z,5603.00
2023-03-17T12:15:05.060Z,5656.00
2023-03-17T12:16:05.119Z,5887.00
2023-03-17T12:17:05.101Z,5866.00
2023-03-17T12:18:05.037Z,5701.00
2023-03-17T12:19:05.034Z,5696.00
2023-03-17T12:20:05.025Z,5846.00
2023-03-17T12:21:05.011Z,5848.00
2023-03-17T12:22:04.985Z,5767.00
2023-03-17T12:23:05.001Z,5538.00
2023-03-17T12:24:04.990Z,5586.00
2023-03-17T12:25:04.959Z,5712.00
2023-03-17T12:26:04.968Z,5488.00
2023-03-17T12:27:04.937Z,5588.00
2023-03-17T12:28:04.938Z,5272.00
2023-03-17T12:29:04.941Z,5274.00
2023-03-17T12:30:04.921Z,5283.00
2023-03-17T12:31:05.008Z,5122.00
2023-03-17T12:32:04.881Z,5138.00
2023-03-17T12:33:04.935Z,5222.00
2023-03-17T12:34:04.875Z,5046.00
2023-03-17T12:35:04.849Z,4957.00
2023-03-17T12:36:04.892Z,5076.00
2023-03-17T12:37:04.829Z,4957.00